Time;durP1;ratioP1;P1;durP2;ratioP2;P2;SDS_P1;SDS_P2;PMS_P1;PMS_P2;Temp;Humidity;BMP_temperature;BMP_pressure;BME280_temperature;BME280_humidity;BME280_pressure;Samples;Min_cycle;Max_cycle;Signal;HPM_P1;HPM_P2
2023/08/21 00:01:59;;;;;;;8.20;7.10;;;20.70;99.90;;;;;;491611;241;28825;-74
2023/08/21 00:04:00;;;;;;;9.40;7.10;;;20.70;99.90;;;;;;491593;241;29337;-74
2023/08/21 00:06:01;;;;;;;8.87;7.27;;;20.70;99.90;;;;;;491613;241;29270;-75
2023/08/21 00:08:02;;;;;;;10.03;7.47;;;20.70;99.90;;;;;;491606;242;29312;-74
2023/08/21 00:10:04;;;;;;;7.43;6.17;;;20.70;99.90;;;;;;491612;241;28842;-73
2023/08/21 00:12:05;;;;;;;7.00;5.80;;;20.60;99.90;;;;;;491600;241;28811;-74
2023/08/21 00:14:06;;;;;;;6.87;6.27;;;20.60;99.90;;;;;;491621;241;28821;-75
2023/08/21 00:16:07;;;;;;;7.93;6.10;;;20.60;99.90;;;;;;491608;241;28821;-76
2023/08/21 00:18:09;;;;;;;10.30;6.40;;;20.70;99.90;;;;;;491610;241;28841;-75
2023/08/21 00:20:10;;;;;;;11.30;6.37;;;20.60;99.90;;;;;;491614;241;28878;-74
2023/08/21 00:22:11;;;;;;;9.40;6.47;;;20.70;99.90;;;;;;491609;241;28951;-73
2023/08/21 00:24:12;;;;;;;13.10;6.80;;;20.60;99.90;;;;;;491599;241;28884;-74
2023/08/21 00:26:14;;;;;;;9.13;7.37;;;20.60;99.90;;;;;;491610;241;29394;-74
2023/08/21 00:28:15;;;;;;;11.57;6.70;;;20.60;99.90;;;;;;491610;241;29268;-74
2023/08/21 00:30:16;;;;;;;7.37;6.67;;;20.60;99.90;;;;;;491583;242;29371;-74
2023/08/21 00:32:17;;;;;;;11.77;6.63;;;20.50;99.90;;;;;;491605;241;28817;-74
2023/08/21 00:34:19;;;;;;;8.40;6.87;;;20.50;99.90;;;;;;491610;241;28828;-73
2023/08/21 00:36:20;;;;;;;10.30;7.03;;;20.40;99.90;;;;;;491594;241;28901;-73
2023/08/21 00:38:21;;;;;;;10.43;7.47;;;20.40;99.90;;;;;;491606;241;28733;-74
2023/08/21 00:40:22;;;;;;;9.83;7.30;;;20.40;99.90;;;;;;491608;241;28906;-74
2023/08/21 00:42:24;;;;;;;7.50;6.00;;;20.40;99.90;;;;;;491604;242;28823;-74
2023/08/21 00:44:25;;;;;;;7.70;6.67;;;20.40;99.90;;;;;;491599;241;29317;-74
2023/08/21 00:46:26;;;;;;;7.13;6.07;;;20.40;99.90;;;;;;491615;241;28822;-74
2023/08/21 00:48:27;;;;;;;7.90;6.43;;;20.40;99.90;;;;;;491593;241;29364;-74
2023/08/21 00:50:29;;;;;;;11.00;6.97;;;20.40;99.90;;;;;;491604;241;29279;-74
2023/08/21 00:52:30;;;;;;;6.63;5.93;;;20.30;99.90;;;;;;491594;241;29271;-74
2023/08/21 00:54:31;;;;;;;11.07;7.57;;;20.30;99.90;;;;;;491601;241;28845;-74
2023/08/21 00:56:32;;;;;;;13.97;6.97;;;20.30;99.90;;;;;;491596;241;28812;-74
2023/08/21 00:58:34;;;;;;;8.53;7.17;;;20.30;99.90;;;;;;491599;241;28841;-74
2023/08/21 01:00:35;;;;;;;14.63;7.70;;;20.20;99.90;;;;;;491601;241;28906;-74
2023/08/21 01:02:36;;;;;;;10.90;7.77;;;20.20;99.90;;;;;;491600;241;28832;-74
2023/08/21 01:04:37;;;;;;;8.50;7.10;;;20.20;99.90;;;;;;491583;242;29298;-74
2023/08/21 01:06:39;;;;;;;10.60;6.40;;;20.20;99.90;;;;;;491606;241;28838;-74
2023/08/21 01:08:40;;;;;;;7.20;6.50;;;20.10;99.90;;;;;;491598;241;29406;-74
2023/08/21 01:10:41;;;;;;;6.80;6.20;;;20.20;99.90;;;;;;491602;241;29254;-73
2023/08/21 01:12:42;;;;;;;7.60;6.10;;;20.10;99.90;;;;;;491605;241;29180;-74
2023/08/21 01:14:44;;;;;;;7.97;6.60;;;20.20;99.90;;;;;;491591;241;29367;-74
2023/08/21 01:16:45;;;;;;;7.50;6.20;;;20.20;99.90;;;;;;491578;242;28834;-74
2023/08/21 01:18:46;;;;;;;7.63;6.63;;;20.20;99.90;;;;;;491589;242;28904;-74
2023/08/21 01:20:47;;;;;;;6.70;6.10;;;20.10;99.90;;;;;;491603;241;28905;-74
2023/08/21 01:22:50;;;;;;;9.83;6.60;;;20.10;99.90;;;;;;491601;241;28809;-74
2023/08/21 01:24:50;;;;;;;7.20;6.47;;;20.10;99.90;;;;;;491545;241;29273;-74
2023/08/21 01:26:51;;;;;;;7.07;6.43;;;20.10;99.90;;;;;;491599;241;28896;-74
2023/08/21 01:28:52;;;;;;;7.50;6.70;;;20.10;99.90;;;;;;491598;241;28828;-74
2023/08/21 01:30:54;;;;;;;9.80;6.97;;;20.10;99.90;;;;;;491575;241;28844;-74
2023/08/21 01:32:55;;;;;;;9.30;6.63;;;20.00;99.90;;;;;;491613;241;29309;-73
2023/08/21 01:34:56;;;;;;;10.27;6.87;;;20.00;99.90;;;;;;491498;241;29282;-74
2023/08/21 01:36:57;;;;;;;8.33;5.83;;;20.10;99.90;;;;;;491601;242;29350;-74
2023/08/21 01:38:59;;;;;;;7.50;6.60;;;20.00;99.90;;;;;;491497;241;28910;-74
2023/08/21 01:41:00;;;;;;;7.27;6.60;;;20.00;99.90;;;;;;491596;242;28825;-74
2023/08/21 01:43:01;;;;;;;6.83;5.93;;;20.00;99.90;;;;;;491591;242;28909;-74
2023/08/21 01:45:02;;;;;;;7.97;6.30;;;20.00;99.90;;;;;;491601;241;28824;-74
2023/08/21 01:47:04;;;;;;;7.53;6.40;;;20.00;99.90;;;;;;491567;241;28824;-73
2023/08/21 01:49:05;;;;;;;8.87;7.03;;;20.00;99.90;;;;;;491604;241;28844;-74
2023/08/21 01:51:06;;;;;;;7.73;6.40;;;19.90;99.90;;;;;;491616;241;28822;-74
2023/08/21 01:53:07;;;;;;;11.00;6.53;;;19.90;99.90;;;;;;491627;241;28915;-74
2023/08/21 01:55:10;;;;;;;7.27;6.57;;;19.90;99.90;;;;;;491632;241;28890;-74
2023/08/21 01:57:10;;;;;;;7.47;6.23;;;19.90;99.90;;;;;;491581;241;29377;-74
2023/08/21 01:59:11;;;;;;;9.90;7.37;;;19.90;99.90;;;;;;491629;241;29254;-74
2023/08/21 02:01:14;;;;;;;7.30;6.20;;;19.80;99.90;;;;;;491625;242;29257;-74
2023/08/21 02:03:14;;;;;;;6.97;6.27;;;19.80;99.90;;;;;;491586;242;28916;-74
2023/08/21 02:05:15;;;;;;;8.90;6.60;;;19.80;99.90;;;;;;491617;241;28825;-74
2023/08/21 02:07:16;;;;;;;9.20;7.23;;;19.70;99.90;;;;;;491617;241;28818;-74
2023/08/21 02:09:18;;;;;;;7.87;6.40;;;19.70;99.90;;;;;;491615;242;28901;-74
2023/08/21 02:11:20;;;;;;;7.00;6.30;;;19.70;99.90;;;;;;491628;242;28809;-75
2023/08/21 02:13:21;;;;;;;6.47;5.87;;;19.70;99.90;;;;;;491633;241;28820;-74
2023/08/21 02:15:23;;;;;;;7.07;6.33;;;19.70;99.90;;;;;;491631;241;28885;-75
2023/08/21 02:17:23;;;;;;;11.60;6.43;;;19.70;99.90;;;;;;491624;241;28918;-75
2023/08/21 02:19:25;;;;;;;7.17;6.53;;;19.70;99.90;;;;;;491614;241;28812;-74
2023/08/21 02:21:26;;;;;;;6.87;6.27;;;19.70;99.90;;;;;;491621;242;28821;-74
2023/08/21 02:23:28;;;;;;;8.70;6.70;;;19.70;99.90;;;;;;491616;241;28912;-73
2023/08/21 02:25:28;;;;;;;9.20;6.60;;;19.60;99.90;;;;;;491563;242;28825;-73
2023/08/21 02:27:30;;;;;;;8.87;7.30;;;19.60;99.90;;;;;;491517;242;29271;-74
2023/08/21 02:29:31;;;;;;;9.37;6.87;;;19.60;99.90;;;;;;491636;241;29361;-74
2023/08/21 02:31:32;;;;;;;9.40;8.33;;;19.50;99.90;;;;;;491622;242;29372;-73
2023/08/21 02:33:33;;;;;;;13.20;8.80;;;19.50;99.90;;;;;;491598;241;28897;-74
2023/08/21 02:35:35;;;;;;;11.83;8.60;;;19.50;99.90;;;;;;491629;241;28841;-74
2023/08/21 02:37:38;;;;;;;16.70;9.40;;;19.50;99.90;;;;;;491582;242;28894;-74
2023/08/21 02:39:37;;;;;;;12.10;8.90;;;19.40;99.90;;;;;;491487;241;28797;-74
2023/08/21 02:41:39;;;;;;;16.53;9.97;;;19.40;99.90;;;;;;491609;241;28910;-74
2023/08/21 02:43:40;;;;;;;13.80;9.80;;;19.40;99.90;;;;;;491620;241;28802;-74
2023/08/21 02:45:41;;;;;;;17.77;10.83;;;19.40;99.90;;;;;;491598;241;28783;-74
2023/08/21 02:47:42;;;;;;;10.63;8.60;;;19.40;99.90;;;;;;491623;241;28825;-74
2023/08/21 02:49:44;;;;;;;12.87;8.47;;;19.40;99.90;;;;;;491621;241;28824;-74
2023/08/21 02:51:45;;;;;;;9.70;7.53;;;19.40;99.90;;;;;;491613;241;28861;-73
2023/08/21 02:53:46;;;;;;;9.23;7.07;;;19.40;99.90;;;;;;491613;241;28818;-74
2023/08/21 02:55:47;;;;;;;8.00;7.10;;;19.40;99.90;;;;;;491614;241;28823;-74
2023/08/21 02:57:49;;;;;;;8.37;7.47;;;19.40;99.90;;;;;;491612;241;28921;-75
2023/08/21 02:59:50;;;;;;;8.50;7.60;;;19.40;99.90;;;;;;491615;241;28730;-75
2023/08/21 03:01:51;;;;;;;9.30;7.50;;;19.40;99.90;;;;;;491622;241;28816;-74
2023/08/21 03:03:52;;;;;;;11.40;8.73;;;19.40;99.90;;;;;;491622;241;29290;-74
2023/08/21 03:05:54;;;;;;;11.83;9.53;;;19.40;99.90;;;;;;491604;242;29276;-74
2023/08/21 03:07:55;;;;;;;12.17;9.53;;;19.30;99.90;;;;;;491629;241;29272;-74
2023/08/21 03:09:56;;;;;;;10.93;8.77;;;19.40;99.90;;;;;;491628;241;28812;-74
2023/08/21 03:11:57;;;;;;;11.70;9.37;;;19.30;99.90;;;;;;491618;241;28899;-74
2023/08/21 03:13:59;;;;;;;12.47;9.40;;;19.30;99.90;;;;;;491621;241;28715;-74
2023/08/21 03:16:00;;;;;;;11.93;9.07;;;19.30;99.90;;;;;;491632;241;28897;-73
2023/08/21 03:18:01;;;;;;;10.20;8.50;;;19.30;99.90;;;;;;491600;241;28923;-74
2023/08/21 03:20:06;;;;;;;11.40;8.63;;;19.30;99.90;;;;;;491613;241;28828;-74
2023/08/21 03:22:04;;;;;;;10.93;8.40;;;19.20;99.90;;;;;;491462;242;29360;-74
2023/08/21 03:24:05;;;;;;;9.43;8.30;;;19.20;99.90;;;;;;491608;242;29216;-74
2023/08/21 03:26:06;;;;;;;8.53;7.73;;;19.20;99.90;;;;;;491598;241;29240;-74
2023/08/21 03:28:07;;;;;;;8.77;7.10;;;19.20;99.90;;;;;;491625;241;28826;-74
2023/08/21 03:30:09;;;;;;;8.57;7.20;;;19.10;99.90;;;;;;491617;241;28814;-73
2023/08/21 03:32:10;;;;;;;7.87;7.17;;;19.10;99.90;;;;;;491612;241;28831;-74
2023/08/21 03:34:11;;;;;;;7.63;6.27;;;19.10;99.90;;;;;;491621;242;28727;-74
2023/08/21 03:36:12;;;;;;;9.07;6.97;;;19.10;99.90;;;;;;491625;242;28706;-72
2023/08/21 03:38:14;;;;;;;9.23;6.73;;;19.20;99.90;;;;;;491612;241;28882;-75
2023/08/21 03:40:15;;;;;;;6.87;6.17;;;19.20;99.90;;;;;;491619;241;28796;-73
2023/08/21 03:42:16;;;;;;;7.50;6.60;;;19.20;99.90;;;;;;491616;241;28935;-75
2023/08/21 03:44:17;;;;;;;7.70;6.17;;;19.20;99.90;;;;;;491620;241;28884;-75
2023/08/21 03:46:19;;;;;;;7.63;6.60;;;19.20;99.90;;;;;;491586;242;29247;-74
2023/08/21 03:48:20;;;;;;;7.30;6.60;;;19.10;99.90;;;;;;491603;241;29257;-76
2023/08/21 03:50:21;;;;;;;6.97;6.23;;;19.20;99.90;;;;;;491619;241;29355;-74
2023/08/21 03:52:23;;;;;;;8.20;7.00;;;19.10;99.90;;;;;;491601;241;29147;-75
2023/08/21 03:54:24;;;;;;;8.63;6.43;;;19.10;99.90;;;;;;491617;241;28824;-74
2023/08/21 03:56:25;;;;;;;6.60;5.43;;;19.10;99.90;;;;;;491606;241;28826;-76
2023/08/21 03:58:26;;;;;;;8.97;7.03;;;19.10;99.90;;;;;;491610;241;28824;-75
2023/08/21 04:00:28;;;;;;;20.83;6.50;;;19.10;99.90;;;;;;491602;241;28834;-75
2023/08/21 04:02:29;;;;;;;13.73;6.40;;;19.10;99.90;;;;;;491615;241;28890;-74
2023/08/21 04:04:30;;;;;;;10.53;7.10;;;19.10;99.90;;;;;;491596;241;28912;-75
2023/08/21 04:06:31;;;;;;;7.30;6.50;;;19.10;99.90;;;;;;491610;241;28817;-74
2023/08/21 04:08:33;;;;;;;7.70;6.87;;;19.10;99.90;;;;;;491615;241;29186;-75
2023/08/21 04:10:34;;;;;;;8.90;7.20;;;19.00;99.90;;;;;;491609;242;29262;-74
2023/08/21 04:12:35;;;;;;;8.20;7.40;;;19.00;99.90;;;;;;491603;241;29369;-74
2023/08/21 04:14:36;;;;;;;9.13;7.70;;;19.00;99.90;;;;;;491608;241;28822;-74
2023/08/21 04:16:38;;;;;;;11.63;8.17;;;19.00;99.90;;;;;;491618;241;28840;-74
2023/08/21 04:18:39;;;;;;;7.30;6.57;;;19.00;99.90;;;;;;491603;241;28732;-75
2023/08/21 04:20:40;;;;;;;7.53;6.53;;;18.90;99.90;;;;;;491603;241;28845;-75
2023/08/21 04:22:41;;;;;;;7.07;6.37;;;19.00;99.90;;;;;;491604;241;28829;-75
2023/08/21 04:24:43;;;;;;;7.40;6.00;;;19.00;99.90;;;;;;491610;241;28845;-75
2023/08/21 04:26:44;;;;;;;6.77;6.17;;;19.00;99.90;;;;;;491598;241;28804;-73
2023/08/21 04:28:45;;;;;;;7.27;6.40;;;18.90;99.90;;;;;;491602;241;28808;-74
2023/08/21 04:30:46;;;;;;;11.53;6.23;;;18.90;99.90;;;;;;491598;241;29273;-74
2023/08/21 04:32:48;;;;;;;7.00;6.30;;;19.00;99.90;;;;;;491606;241;29254;-74
2023/08/21 04:34:49;;;;;;;7.47;6.77;;;19.00;99.90;;;;;;491604;241;29392;-73
2023/08/21 04:36:50;;;;;;;6.93;6.20;;;19.00;99.90;;;;;;491614;242;28905;-74
2023/08/21 04:38:51;;;;;;;7.10;6.40;;;19.00;99.90;;;;;;491611;241;28732;-74
2023/08/21 04:40:53;;;;;;;7.60;6.30;;;19.00;99.90;;;;;;491614;241;28840;-74
2023/08/21 04:42:54;;;;;;;7.90;6.50;;;19.00;99.90;;;;;;491611;241;28829;-77
2023/08/21 04:44:55;;;;;;;8.43;7.03;;;19.00;99.90;;;;;;491602;241;28845;-74
2023/08/21 04:46:56;;;;;;;7.10;6.07;;;19.00;99.90;;;;;;491599;241;28830;-73
2023/08/21 04:48:58;;;;;;;7.27;6.60;;;19.00;99.90;;;;;;491606;241;28812;-74
2023/08/21 04:50:59;;;;;;;6.80;5.90;;;19.00;99.90;;;;;;491610;241;28900;-74
2023/08/21 04:53:00;;;;;;;6.10;5.53;;;19.00;99.90;;;;;;491372;241;28829;-74
2023/08/21 04:55:01;;;;;;;6.90;5.77;;;19.00;99.90;;;;;;491558;241;29402;-74
2023/08/21 04:57:03;;;;;;;8.10;6.40;;;18.90;99.90;;;;;;491606;241;29241;-74
2023/08/21 04:59:04;;;;;;;6.77;6.10;;;19.00;99.90;;;;;;491572;242;29270;-72
2023/08/21 05:01:05;;;;;;;7.17;6.47;;;19.00;99.90;;;;;;491603;241;29260;-75
2023/08/21 05:03:08;;;;;;;10.40;6.63;;;19.10;99.90;;;;;;491603;241;28719;-74
2023/08/21 05:05:08;;;;;;;8.50;6.60;;;19.00;99.90;;;;;;491489;241;28931;-76
2023/08/21 05:07:09;;;;;;;10.77;9.53;;;19.00;99.90;;;;;;491596;241;28842;-72
2023/08/21 05:09:10;;;;;;;16.70;11.53;;;19.00;99.90;;;;;;491591;241;28896;-72
2023/08/21 05:11:11;;;;;;;13.50;11.13;;;19.10;99.90;;;;;;491610;242;28902;-74
2023/08/21 05:13:16;;;;;;;13.63;11.43;;;19.10;99.90;;;;;;491604;241;28783;-73
2023/08/21 05:15:14;;;;;;;12.77;9.80;;;19.10;99.90;;;;;;491373;241;29364;-74
2023/08/21 05:17:15;;;;;;;10.33;8.30;;;19.10;99.90;;;;;;491608;241;29237;-73
2023/08/21 05:19:16;;;;;;;8.70;7.80;;;19.10;99.90;;;;;;491614;241;28840;-74
2023/08/21 05:21:18;;;;;;;10.47;7.77;;;19.20;99.90;;;;;;491607;241;28805;-75
2023/08/21 05:23:19;;;;;;;9.43;8.43;;;19.20;99.90;;;;;;491600;241;28923;-74
2023/08/21 05:25:20;;;;;;;11.87;9.33;;;19.20;99.90;;;;;;491596;242;28899;-74
2023/08/21 05:27:21;;;;;;;15.20;11.30;;;19.20;99.90;;;;;;491597;241;28902;-75
2023/08/21 05:29:23;;;;;;;53.07;33.40;;;19.20;99.90;;;;;;491601;241;28785;-75
2023/08/21 05:31:24;;;;;;;50.20;31.00;;;19.20;99.90;;;;;;491601;242;28831;-75
2023/08/21 05:33:25;;;;;;;48.30;32.17;;;19.20;99.90;;;;;;491601;241;29254;-75
2023/08/21 05:35:26;;;;;;;38.90;26.50;;;19.20;99.90;;;;;;491611;241;29275;-75
2023/08/21 05:37:28;;;;;;;36.47;24.20;;;19.30;99.90;;;;;;491616;241;28823;-75
2023/08/21 05:39:29;;;;;;;31.03;21.57;;;19.30;99.90;;;;;;491607;241;28940;-75
2023/08/21 05:41:30;;;;;;;28.63;21.10;;;19.30;99.90;;;;;;491603;241;28932;-76
2023/08/21 05:43:31;;;;;;;28.90;21.50;;;19.30;99.90;;;;;;491611;241;28828;-75
2023/08/21 05:45:33;;;;;;;29.07;21.07;;;19.30;99.90;;;;;;491603;241;28875;-75
2023/08/21 05:47:34;;;;;;;27.93;19.07;;;19.40;99.90;;;;;;491583;242;29364;-74
2023/08/21 05:49:35;;;;;;;29.07;19.23;;;19.40;99.90;;;;;;491600;241;29275;-76
2023/08/21 05:51:37;;;;;;;28.30;20.03;;;19.50;99.90;;;;;;491604;241;28800;-75
2023/08/21 05:53:38;;;;;;;41.63;29.20;;;19.50;99.90;;;;;;491597;242;28812;-75
2023/08/21 05:55:39;;;;;;;57.40;40.40;;;19.60;99.90;;;;;;491589;241;28821;-75
2023/08/21 05:57:40;;;;;;;55.30;39.40;;;19.60;99.90;;;;;;491596;241;28925;-75
2023/08/21 05:59:42;;;;;;;45.77;32.40;;;19.60;99.90;;;;;;491588;241;28827;-75
2023/08/21 06:01:43;;;;;;;41.23;29.53;;;19.70;99.90;;;;;;491594;241;29262;-74
2023/08/21 06:03:44;;;;;;;36.50;26.03;;;19.80;99.90;;;;;;491602;241;29445;-74
2023/08/21 06:05:46;;;;;;;44.43;28.37;;;19.80;99.90;;;;;;491598;241;28816;-74
2023/08/21 06:07:47;;;;;;;63.40;42.70;;;19.90;99.90;;;;;;491540;242;28808;-75
2023/08/21 06:09:48;;;;;;;46.00;34.17;;;19.90;99.90;;;;;;491604;241;28809;-77
2023/08/21 06:11:49;;;;;;;33.13;23.80;;;20.00;99.90;;;;;;491599;241;28810;-76
2023/08/21 06:13:50;;;;;;;28.83;19.60;;;20.00;99.90;;;;;;491597;241;28818;-75
2023/08/21 06:15:52;;;;;;;17.60;15.30;;;20.00;99.90;;;;;;491586;242;29283;-75
2023/08/21 06:17:53;;;;;;;17.33;13.50;;;20.00;99.90;;;;;;491605;241;29262;-75
2023/08/21 06:19:55;;;;;;;16.10;13.20;;;20.00;99.90;;;;;;491602;241;28961;-74
2023/08/21 06:21:55;;;;;;;11.77;10.57;;;20.10;99.90;;;;;;491595;241;28899;-74
2023/08/21 06:23:57;;;;;;;16.23;10.40;;;20.10;99.90;;;;;;491598;241;28908;-75
2023/08/21 06:25:58;;;;;;;12.40;9.73;;;20.10;99.90;;;;;;491597;242;28810;-75
2023/08/21 06:27:59;;;;;;;10.20;9.10;;;20.20;99.90;;;;;;491589;241;28820;-75
2023/08/21 06:30:00;;;;;;;11.53;9.87;;;20.20;99.90;;;;;;491589;241;28929;-75
2023/08/21 06:32:02;;;;;;;10.00;8.77;;;20.30;99.90;;;;;;491600;241;29247;-75
2023/08/21 06:34:03;;;;;;;11.33;8.57;;;20.30;99.90;;;;;;491596;242;29353;-75
2023/08/21 06:36:04;;;;;;;8.23;7.33;;;20.40;99.90;;;;;;491593;241;29411;-75
2023/08/21 06:38:05;;;;;;;11.30;7.87;;;20.40;99.90;;;;;;491602;241;28818;-75
2023/08/21 06:40:07;;;;;;;7.90;7.10;;;20.50;99.90;;;;;;491628;241;28929;-76
2023/08/21 06:42:08;;;;;;;13.70;7.53;;;20.60;99.90;;;;;;491628;241;28806;-75
2023/08/21 06:44:09;;;;;;;8.40;7.10;;;20.60;99.90;;;;;;491614;241;28822;-74
2023/08/21 06:46:10;;;;;;;8.43;7.50;;;20.70;99.90;;;;;;491622;241;28906;-77
2023/08/21 06:48:12;;;;;;;8.13;7.33;;;20.80;99.90;;;;;;491619;241;28910;-75
2023/08/21 06:50:13;;;;;;;10.50;7.37;;;20.80;99.90;;;;;;491622;241;28810;-76
2023/08/21 06:52:14;;;;;;;8.03;7.23;;;20.90;99.90;;;;;;491612;241;28909;-76
2023/08/21 06:54:16;;;;;;;7.77;6.57;;;21.00;99.90;;;;;;491614;241;29382;-75
2023/08/21 06:56:17;;;;;;;7.60;6.80;;;21.00;99.90;;;;;;491611;242;29255;-77
2023/08/21 06:58:18;;;;;;;9.90;7.33;;;21.10;99.90;;;;;;491615;241;29377;-74
2023/08/21 07:00:19;;;;;;;7.83;7.10;;;21.20;99.90;;;;;;491600;241;28807;-75
2023/08/21 07:02:20;;;;;;;9.50;7.47;;;21.30;99.90;;;;;;491611;242;28901;-74
2023/08/21 07:04:22;;;;;;;9.43;7.43;;;21.30;99.90;;;;;;491617;241;28909;-74
2023/08/21 07:06:23;;;;;;;8.40;7.50;;;21.40;99.90;;;;;;491621;241;28733;-75
2023/08/21 07:08:24;;;;;;;11.10;7.87;;;21.40;99.90;;;;;;491607;241;28921;-74
2023/08/21 07:10:25;;;;;;;9.03;7.37;;;21.50;99.90;;;;;;491617;241;28827;-74
2023/08/21 07:12:27;;;;;;;8.60;7.70;;;21.60;99.90;;;;;;491609;241;28846;-74
2023/08/21 07:14:28;;;;;;;9.93;8.10;;;21.60;99.90;;;;;;491614;241;28913;-74
2023/08/21 07:16:29;;;;;;;8.10;7.27;;;21.70;99.90;;;;;;491614;241;28911;-74
2023/08/21 07:18:30;;;;;;;10.30;8.33;;;21.80;99.90;;;;;;491624;241;29274;-74
2023/08/21 07:20:32;;;;;;;9.07;7.53;;;21.90;99.90;;;;;;491611;242;29367;-75
2023/08/21 07:22:33;;;;;;;10.03;8.10;;;21.90;99.90;;;;;;491621;241;29428;-75
2023/08/21 07:24:34;;;;;;;9.73;8.67;;;22.00;99.90;;;;;;491611;241;28823;-74
2023/08/21 07:26:35;;;;;;;8.60;7.77;;;22.10;99.90;;;;;;491608;241;28754;-74
2023/08/21 07:28:37;;;;;;;9.27;7.73;;;22.20;99.90;;;;;;491593;241;28909;-74
2023/08/21 07:30:38;;;;;;;8.50;7.70;;;22.20;99.90;;;;;;491634;241;28718;-79
2023/08/21 07:32:40;;;;;;;8.27;7.47;;;22.30;99.90;;;;;;491614;241;28830;-74
2023/08/21 07:34:41;;;;;;;9.73;8.10;;;22.30;99.90;;;;;;491620;241;28834;-74
2023/08/21 07:36:43;;;;;;;8.27;7.57;;;22.40;99.90;;;;;;491572;241;28940;-74
2023/08/21 07:38:44;;;;;;;9.13;8.23;;;22.50;99.90;;;;;;491511;241;28838;-74
2023/08/21 07:40:45;;;;;;;8.73;7.83;;;22.60;99.90;;;;;;491482;241;28814;-75
2023/08/21 07:42:47;;;;;;;8.33;7.37;;;22.70;99.90;;;;;;491630;241;28842;-74
2023/08/21 07:44:48;;;;;;;9.00;8.10;;;22.70;99.90;;;;;;491604;242;28773;-74
2023/08/21 07:46:49;;;;;;;8.90;8.10;;;22.70;99.90;;;;;;491605;242;29294;-75
2023/08/21 07:48:50;;;;;;;10.00;8.40;;;22.80;99.90;;;;;;491583;241;29368;-74
2023/08/21 07:50:52;;;;;;;11.23;8.23;;;22.80;99.90;;;;;;491602;241;29180;-75
2023/08/21 07:52:53;;;;;;;9.37;8.47;;;22.90;99.90;;;;;;491481;241;28922;-74
2023/08/21 07:54:54;;;;;;;8.13;7.33;;;23.00;99.90;;;;;;491599;242;28729;-74
2023/08/21 07:56:55;;;;;;;8.80;7.27;;;23.00;99.90;;;;;;491608;241;28925;-74
2023/08/21 07:58:57;;;;;;;8.37;7.57;;;23.10;99.90;;;;;;491606;241;28925;-75
2023/08/21 08:00:58;;;;;;;10.40;8.57;;;23.20;99.90;;;;;;491607;241;28897;-74
2023/08/21 08:02:59;;;;;;;10.93;8.20;;;23.20;99.90;;;;;;491608;241;28828;-77
2023/08/21 08:05:00;;;;;;;8.63;7.93;;;23.20;99.90;;;;;;491608;241;28848;-74
2023/08/21 08:07:02;;;;;;;8.47;7.67;;;23.30;99.90;;;;;;491611;242;28834;-74
2023/08/21 08:09:06;;;;;;;7.53;6.83;;;23.40;99.90;;;;;;491594;242;29261;-74
2023/08/21 08:11:07;;;;;;;11.70;8.27;;;23.40;99.90;;;;;;491608;241;28846;-74
2023/08/21 08:13:08;;;;;;;11.23;8.47;;;23.60;99.90;;;;;;491583;242;28945;-74
2023/08/21 08:15:09;;;;;;;8.03;7.23;;;23.60;99.90;;;;;;491611;242;29390;-75
2023/08/21 08:17:11;;;;;;;7.70;7.00;;;23.70;99.90;;;;;;491604;241;29271;-74
2023/08/21 08:19:12;;;;;;;8.00;7.20;;;23.70;99.90;;;;;;491600;241;29364;-74
2023/08/21 08:21:13;;;;;;;8.50;6.50;;;23.80;99.90;;;;;;491602;241;28895;-74
2023/08/21 08:23:14;;;;;;;7.87;6.90;;;23.90;99.90;;;;;;491611;241;28733;-75
2023/08/21 08:25:16;;;;;;;7.40;6.30;;;23.90;99.90;;;;;;491608;241;28918;-74
2023/08/21 08:27:17;;;;;;;7.57;5.50;;;23.90;99.90;;;;;;491584;241;28907;-74
2023/08/21 08:29:18;;;;;;;5.20;4.70;;;24.10;99.90;;;;;;491601;241;28820;-77
2023/08/21 08:31:19;;;;;;;5.00;4.50;;;24.30;99.90;;;;;;491599;241;28907;-75
2023/08/21 08:33:21;;;;;;;4.40;4.00;;;24.70;99.90;;;;;;491607;241;28794;-75
2023/08/21 08:35:22;;;;;;;8.70;4.43;;;24.70;99.90;;;;;;491604;241;28823;-77
2023/08/21 08:37:23;;;;;;;6.27;4.50;;;24.70;99.90;;;;;;491602;241;29356;-74
2023/08/21 08:39:24;;;;;;;5.90;5.00;;;25.20;99.90;;;;;;491600;241;29246;-74
2023/08/21 08:41:28;;;;;;;9.83;4.50;;;25.30;99.90;;;;;;491600;241;29305;-75
2023/08/21 08:43:27;;;;;;;6.23;4.20;;;25.50;99.90;;;;;;491487;241;28844;-75
2023/08/21 08:45:30;;;;;;;5.90;4.43;;;25.60;99.90;;;;;;491602;241;28835;-74
2023/08/21 08:47:29;;;;;;;6.17;4.53;;;25.60;99.90;;;;;;491503;241;28909;-75
2023/08/21 08:49:31;;;;;;;4.83;3.70;;;25.50;99.90;;;;;;491588;241;28848;-74
2023/08/21 08:51:32;;;;;;;3.43;3.03;;;25.50;99.90;;;;;;491598;242;28917;-75
2023/08/21 08:53:33;;;;;;;3.97;2.80;;;25.80;99.90;;;;;;491593;241;28810;-75
2023/08/21 08:55:34;;;;;;;4.73;3.07;;;25.70;99.90;;;;;;491602;241;28811;-74
2023/08/21 08:57:36;;;;;;;2.97;2.73;;;25.60;99.90;;;;;;491592;241;28904;-74
2023/08/21 08:59:37;;;;;;;4.07;3.10;;;25.80;99.90;;;;;;491580;241;28822;-74
2023/08/21 09:01:38;;;;;;;3.40;2.70;;;25.80;99.90;;;;;;491594;242;29341;-74
2023/08/21 09:03:39;;;;;;;5.70;3.10;;;26.20;99.90;;;;;;491596;241;29321;-74
2023/08/21 09:05:41;;;;;;;3.30;3.00;;;26.00;99.90;;;;;;491603;241;29193;-74
2023/08/21 09:07:42;;;;;;;3.17;2.87;;;25.90;99.90;;;;;;491602;241;29409;-74
2023/08/21 09:09:43;;;;;;;3.80;3.50;;;25.90;99.90;;;;;;491597;241;28897;-74
2023/08/21 09:11:44;;;;;;;3.43;3.13;;;25.80;99.90;;;;;;491608;241;28832;-75
2023/08/21 09:13:46;;;;;;;3.77;3.30;;;25.80;99.90;;;;;;491604;241;28809;-75
2023/08/21 09:15:50;;;;;;;3.70;3.40;;;25.80;99.90;;;;;;491603;241;28819;-74
2023/08/21 09:17:51;;;;;;;5.80;3.20;;;25.80;99.90;;;;;;491588;241;29271;-75
2023/08/21 09:19:52;;;;;;;3.90;3.60;;;25.60;99.90;;;;;;491584;241;29276;-75
2023/08/21 09:21:54;;;;;;;3.40;3.10;;;25.40;99.90;;;;;;491578;241;29234;-75
2023/08/21 09:23:55;;;;;;;3.73;3.40;;;25.40;99.90;;;;;;491591;241;28814;-75
2023/08/21 09:25:56;;;;;;;4.80;3.60;;;25.40;99.90;;;;;;491600;241;28836;-75
2023/08/21 09:27:57;;;;;;;11.30;3.37;;;25.40;99.90;;;;;;491593;241;28890;-75
2023/08/21 09:29:59;;;;;;;4.00;3.20;;;25.50;99.90;;;;;;491214;241;28809;-76
2023/08/21 09:32:00;;;;;;;4.63;3.53;;;25.50;99.90;;;;;;491138;242;28691;-75
2023/08/21 09:34:04;;;;;;;4.37;2.83;;;25.50;99.90;;;;;;491370;242;28906;-75
2023/08/21 09:36:02;;;;;;;3.70;3.20;;;25.50;99.90;;;;;;491418;241;28846;-76
2023/08/21 09:38:04;;;;;;;3.93;3.27;;;25.50;99.90;;;;;;491593;242;28819;-76
2023/08/21 09:40:07;;;;;;;3.53;2.83;;;25.60;99.90;;;;;;491572;242;29278;-75
2023/08/21 09:42:06;;;;;;;5.13;3.27;;;25.70;99.90;;;;;;491507;241;29274;-75
2023/08/21 09:44:07;;;;;;;3.60;2.90;;;25.70;99.90;;;;;;491566;242;29395;-73
2023/08/21 09:46:09;;;;;;;3.93;3.50;;;25.90;99.90;;;;;;491604;242;28839;-77
2023/08/21 09:48:10;;;;;;;3.07;2.77;;;25.90;99.90;;;;;;491585;241;28810;-76
2023/08/21 09:50:11;;;;;;;4.20;3.37;;;25.80;99.90;;;;;;491599;241;28823;-74
2023/08/21 09:52:13;;;;;;;3.17;2.70;;;25.70;99.90;;;;;;491600;241;28921;-75
2023/08/21 09:54:14;;;;;;;3.13;2.83;;;25.70;99.90;;;;;;491541;242;28900;-74
2023/08/21 09:56:15;;;;;;;3.50;3.20;;;25.90;99.90;;;;;;491497;241;28831;-74
2023/08/21 09:58:16;;;;;;;6.93;3.60;;;26.00;99.90;;;;;;491593;241;28905;-74
2023/08/21 10:00:20;;;;;;;4.17;3.17;;;25.90;99.90;;;;;;491594;241;28903;-74
2023/08/21 10:02:19;;;;;;;3.90;3.30;;;25.90;99.90;;;;;;491427;242;28822;-75
2023/08/21 10:04:20;;;;;;;3.83;3.10;;;25.90;99.90;;;;;;491593;241;29268;-75
2023/08/21 10:06:22;;;;;;;3.60;3.30;;;26.00;99.90;;;;;;491595;241;29255;-75
2023/08/21 10:08:22;;;;;;;5.90;3.80;;;26.00;99.90;;;;;;491522;241;29273;-78
2023/08/21 10:10:24;;;;;;;3.87;3.00;;;26.10;99.90;;;;;;491591;241;29251;-74
2023/08/21 10:12:25;;;;;;;3.90;3.60;;;26.30;99.90;;;;;;491602;242;28909;-74
2023/08/21 10:14:26;;;;;;;4.10;3.13;;;26.30;99.90;;;;;;491587;241;28919;-74
2023/08/21 10:16:27;;;;;;;7.43;3.43;;;26.20;99.90;;;;;;491577;241;28798;-76
2023/08/21 10:18:29;;;;;;;5.43;3.50;;;26.30;99.90;;;;;;491614;241;28903;-75
2023/08/21 10:20:30;;;;;;;3.50;3.20;;;26.30;99.90;;;;;;491618;242;28758;-75
2023/08/21 10:22:31;;;;;;;4.60;3.40;;;26.30;99.90;;;;;;491610;241;29009;-75
2023/08/21 10:24:32;;;;;;;4.83;3.60;;;26.30;99.90;;;;;;491629;241;28820;-75
2023/08/21 10:26:34;;;;;;;4.50;4.10;;;26.40;99.90;;;;;;491620;241;28722;-76
2023/08/21 10:28:35;;;;;;;4.10;3.70;;;26.50;99.90;;;;;;491603;241;29279;-76